Time;durP1;ratioP1;P1;durP2;ratioP2;P2;SDS_P1;SDS_P2;PMS_P1;PMS_P2;Temp;Humidity;BMP_temperature;BMP_pressure;BME280_temperature;BME280_humidity;BME280_pressure;Samples;Min_cycle;Max_cycle;Signal;HPM_P1;HPM_P2
2022/11/05 00:10:23;;;;;;;10.65;2.65;;;7.90;99.90;;;;;;5013525;28;20017;-91
2022/11/05 00:18:19;;;;;;;10.68;2.38;;;7.90;99.90;;;;;;5009490;28;20045;-90
2022/11/05 00:20:45;;;;;;;5.72;2.47;;;7.90;99.90;;;;;;5000296;28;20026;-91
2022/11/05 00:25:59;;;;;;;5.38;2.45;;;8.00;99.90;;;;;;4997612;28;20068;-90
2022/11/05 00:28:26;;;;;;;3.85;2.40;;;8.00;99.90;;;;;;4979718;28;20029;-91
2022/11/05 00:30:52;;;;;;;8.15;2.45;;;8.00;99.90;;;;;;4979418;28;20061;-90
2022/11/05 00:33:18;;;;;;;8.50;2.40;;;8.00;99.90;;;;;;4979630;28;20066;-91
2022/11/05 00:35:44;;;;;;;5.35;2.35;;;8.00;99.90;;;;;;4979266;28;20022;-90
2022/11/05 00:38:10;;;;;;;10.25;2.30;;;8.10;99.90;;;;;;4979171;28;20038;-90
2022/11/05 00:40:36;;;;;;;10.00;2.70;;;8.00;99.90;;;;;;4987554;28;20026;-90
2022/11/05 00:45:46;;;;;;;6.30;2.25;;;8.00;99.90;;;;;;4996273;28;20045;-89
2022/11/05 00:50:56;;;;;;;4.93;1.95;;;8.00;99.90;;;;;;4995568;28;20076;-90
2022/11/05 00:53:22;;;;;;;5.53;2.28;;;8.00;99.90;;;;;;4978153;28;20500;-90
2022/11/05 00:55:47;;;;;;;4.22;2.15;;;8.00;99.90;;;;;;4978516;28;20026;-90
2022/11/05 00:58:16;;;;;;;5.25;2.17;;;8.00;99.90;;;;;;4978878;28;20050;-91
2022/11/05 01:00:47;;;;;;;4.93;1.90;;;7.90;99.90;;;;;;4986680;28;20034;-90
2022/11/05 01:03:14;;;;;;;12.10;2.90;;;7.90;99.90;;;;;;4980241;28;20026;-91
2022/11/05 01:05:46;;;;;;;8.63;3.08;;;7.90;99.90;;;;;;4978169;28;20054;-91
2022/11/05 01:08:13;;;;;;;13.18;2.20;;;7.90;99.90;;;;;;4978893;28;20037;-92
2022/11/05 01:10:48;;;;;;;10.50;3.42;;;7.90;99.90;;;;;;4978308;28;20125;-91
2022/11/05 01:13:17;;;;;;;9.68;2.78;;;7.90;99.90;;;;;;4978396;28;20109;-91
2022/11/05 01:15:44;;;;;;;8.07;2.40;;;7.90;99.90;;;;;;4977978;28;20033;-90
2022/11/05 01:18:10;;;;;;;7.57;2.50;;;7.80;99.90;;;;;;4977770;28;20515;-93
2022/11/05 01:20:36;;;;;;;9.60;2.30;;;7.90;99.90;;;;;;4978194;28;20054;-91
2022/11/05 01:23:02;;;;;;;6.97;2.35;;;7.80;99.90;;;;;;4977997;28;20070;-91
2022/11/05 01:25:27;;;;;;;6.32;2.42;;;7.90;99.90;;;;;;4978031;28;20019;-90
2022/11/05 01:27:53;;;;;;;9.27;2.55;;;7.90;99.90;;;;;;4978428;28;20113;-90
2022/11/05 01:30:19;;;;;;;7.70;2.17;;;7.90;99.90;;;;;;4988723;28;20524;-91
2022/11/05 01:32:45;;;;;;;6.47;2.80;;;8.00;99.90;;;;;;4986618;28;20225;-91
2022/11/05 01:35:14;;;;;;;9.57;2.40;;;8.00;99.90;;;;;;4977903;28;20031;-90
2022/11/05 01:37:40;;;;;;;8.00;2.47;;;8.00;99.90;;;;;;4977556;28;20113;-91
2022/11/05 01:40:09;;;;;;;13.40;3.50;;;8.00;99.90;;;;;;4977652;28;20025;-91
2022/11/05 01:42:34;;;;;;;12.27;2.92;;;8.00;99.90;;;;;;4977299;28;20041;-91
2022/11/05 01:45:11;;;;;;;8.95;2.67;;;8.00;99.90;;;;;;4977767;28;20034;-90
2022/11/05 01:47:51;;;;;;;9.52;2.72;;;8.00;99.90;;;;;;4977282;28;20018;-91
2022/11/05 01:50:32;;;;;;;8.03;2.33;;;8.00;99.90;;;;;;4977272;28;20030;-91
2022/11/05 01:53:28;;;;;;;7.63;2.05;;;8.00;99.90;;;;;;4976737;28;20030;-90
2022/11/05 01:56:03;;;;;;;10.73;2.03;;;8.00;99.90;;;;;;4977334;28;20356;-91
2022/11/05 01:58:35;;;;;;;7.18;2.00;;;8.00;99.90;;;;;;4977010;28;20530;-90
2022/11/05 02:01:01;;;;;;;8.00;2.67;;;8.00;99.90;;;;;;4976642;28;20193;-91
2022/11/05 02:03:27;;;;;;;6.65;2.03;;;8.00;99.90;;;;;;4979031;28;20045;-90
2022/11/05 02:05:55;;;;;;;6.57;2.13;;;8.00;99.90;;;;;;4980209;28;20073;-91
2022/11/05 02:08:56;;;;;;;4.82;2.47;;;8.00;99.90;;;;;;4980600;28;20033;-90
2022/11/05 02:11:22;;;;;;;4.88;2.00;;;8.00;99.90;;;;;;4980768;28;20026;-90
2022/11/05 02:13:48;;;;;;;6.47;2.17;;;8.00;99.90;;;;;;4980523;28;20540;-90
2022/11/05 02:16:17;;;;;;;4.35;1.55;;;8.00;99.90;;;;;;4980273;28;20034;-90
2022/11/05 02:18:58;;;;;;;5.78;1.90;;;8.00;99.90;;;;;;4980732;28;20027;-91
2022/11/05 02:21:58;;;;;;;9.38;2.13;;;8.00;99.90;;;;;;4982512;28;20039;-89
2022/11/05 02:24:33;;;;;;;12.18;3.25;;;8.00;99.90;;;;;;4984521;28;20034;-90
2022/11/05 02:27:15;;;;;;;3.42;1.70;;;8.10;99.90;;;;;;4980193;28;20032;-90
2022/11/05 02:30:03;;;;;;;4.60;1.88;;;8.00;99.90;;;;;;4979999;28;20522;-90
2022/11/05 02:32:53;;;;;;;11.30;2.38;;;8.10;99.90;;;;;;4980065;28;20026;-91
2022/11/05 02:35:41;;;;;;;7.78;2.30;;;8.10;99.90;;;;;;4979737;28;20026;-90
2022/11/05 02:38:10;;;;;;;5.57;1.90;;;8.10;99.90;;;;;;4979788;28;20045;-90
2022/11/05 02:41:09;;;;;;;4.63;1.80;;;8.10;99.90;;;;;;4979516;28;20027;-90
2022/11/05 02:43:43;;;;;;;4.18;2.05;;;8.10;99.90;;;;;;4921220;29;20051;-90
2022/11/05 02:46:30;;;;;;;8.30;1.95;;;8.10;99.90;;;;;;4922198;29;20153;-90
2022/11/05 02:49:16;;;;;;;6.75;2.00;;;8.10;99.90;;;;;;4924131;29;20023;-90
2022/11/05 02:52:03;;;;;;;7.68;3.15;;;8.10;99.90;;;;;;4927337;29;20027;-91
2022/11/05 02:54:43;;;;;;;6.85;2.38;;;8.10;99.90;;;;;;4937953;29;20038;-91
2022/11/05 02:57:09;;;;;;;6.40;2.10;;;8.10;99.90;;;;;;4920953;29;20031;-90
2022/11/05 02:59:34;;;;;;;5.82;2.00;;;8.10;99.90;;;;;;4920758;29;20031;-91
2022/11/05 03:02:02;;;;;;;8.85;3.10;;;8.10;99.90;;;;;;4921731;29;20032;-91
2022/11/05 03:04:28;;;;;;;11.20;2.30;;;8.10;99.90;;;;;;4924459;29;20067;-91
2022/11/05 03:07:15;;;;;;;11.00;3.58;;;8.10;99.90;;;;;;4927646;29;20083;-90
2022/11/05 03:10:01;;;;;;;9.48;2.25;;;8.10;99.90;;;;;;4936665;29;20040;-92
2022/11/05 03:12:46;;;;;;;12.85;3.65;;;8.10;99.90;;;;;;4920758;29;20133;-90
2022/11/05 03:15:41;;;;;;;7.63;2.58;;;8.10;99.90;;;;;;4935743;29;20028;-90
2022/11/05 03:18:38;;;;;;;9.07;3.03;;;8.10;99.90;;;;;;4919929;29;20032;-90
2022/11/05 03:21:10;;;;;;;5.15;2.55;;;8.10;99.90;;;;;;4977467;28;20400;-91
2022/11/05 03:23:57;;;;;;;15.63;2.88;;;8.00;99.90;;;;;;4978825;28;20439;-90
2022/11/05 03:26:28;;;;;;;10.10;3.30;;;8.00;99.90;;;;;;4978686;28;20041;-90
2022/11/05 03:29:08;;;;;;;9.15;3.38;;;8.00;99.90;;;;;;4978658;28;20084;-91
2022/11/05 03:31:36;;;;;;;14.15;2.83;;;8.00;99.90;;;;;;4978878;28;20023;-92
2022/11/05 03:34:04;;;;;;;7.85;2.83;;;8.00;99.90;;;;;;4978920;28;20034;-91
2022/11/05 03:36:40;;;;;;;12.60;3.55;;;8.00;99.90;;;;;;4978568;28;20030;-90
2022/11/05 03:39:09;;;;;;;9.13;2.85;;;8.00;99.90;;;;;;4978692;28;20073;-91
2022/11/05 03:41:39;;;;;;;11.73;4.20;;;7.90;99.90;;;;;;4978454;28;20398;-91
2022/11/05 03:44:07;;;;;;;12.52;3.53;;;7.90;99.90;;;;;;4978673;28;20040;-91
2022/11/05 03:46:48;;;;;;;8.38;3.15;;;7.90;99.90;;;;;;4995681;28;20035;-91
2022/11/05 03:49:20;;;;;;;11.88;3.60;;;7.90;99.90;;;;;;4978335;28;20027;-91
2022/11/05 03:51:55;;;;;;;9.07;3.85;;;7.90;99.90;;;;;;4978608;28;20129;-91
2022/11/05 03:54:21;;;;;;;14.07;3.83;;;7.90;99.90;;;;;;4978220;28;20066;-91
2022/11/05 03:56:53;;;;;;;13.55;4.20;;;7.80;99.90;;;;;;4978188;28;20023;-91
2022/11/05 03:59:20;;;;;;;19.67;4.72;;;7.90;99.90;;;;;;4977842;28;20093;-90
2022/11/05 04:01:47;;;;;;;13.63;3.97;;;7.80;99.90;;;;;;4978229;28;20088;-90
2022/11/05 04:04:12;;;;;;;11.75;4.30;;;7.80;99.90;;;;;;4977936;28;20038;-91
2022/11/05 04:14:55;;;;;;;8.57;3.92;;;7.80;99.90;;;;;;4995577;28;20130;-90
2022/11/05 04:17:20;;;;;;;9.68;3.75;;;7.80;99.90;;;;;;4977806;28;20042;-90
2022/11/05 04:25:18;;;;;;;9.95;4.15;;;7.80;99.90;;;;;;4994018;28;20084;-90
2022/11/05 04:27:44;;;;;;;14.43;4.90;;;7.80;99.90;;;;;;4977999;28;20053;-90
2022/11/05 04:30:23;;;;;;;13.77;4.32;;;7.80;99.90;;;;;;4987415;28;20029;-90
2022/11/05 04:33:09;;;;;;;12.70;4.32;;;7.80;99.90;;;;;;4996592;28;20035;-90
2022/11/05 04:35:37;;;;;;;8.35;4.53;;;7.80;99.90;;;;;;4977576;28;20022;-91
2022/11/05 04:38:04;;;;;;;14.98;6.53;;;7.80;99.90;;;;;;4977246;28;20088;-90
2022/11/05 04:40:30;;;;;;;11.80;4.57;;;7.80;99.90;;;;;;4977435;28;20502;-91
2022/11/05 04:42:57;;;;;;;10.60;4.38;;;7.80;99.90;;;;;;4977083;28;20034;-90
2022/11/05 04:45:25;;;;;;;11.90;4.30;;;7.80;99.90;;;;;;4977618;28;20026;-91
2022/11/05 04:47:50;;;;;;;11.35;4.70;;;7.90;99.90;;;;;;4977361;28;20395;-90
2022/11/05 04:50:16;;;;;;;9.73;4.47;;;7.90;99.90;;;;;;4977247;28;20023;-90
2022/11/05 04:52:42;;;;;;;9.45;3.63;;;7.90;99.90;;;;;;4977045;28;20026;-90
2022/11/05 04:55:09;;;;;;;7.65;4.28;;;7.90;99.90;;;;;;4977454;28;20073;-93
2022/11/05 04:57:35;;;;;;;15.40;4.30;;;7.90;99.90;;;;;;4977298;28;20037;-88
2022/11/05 05:00:01;;;;;;;11.45;4.40;;;7.90;99.90;;;;;;4976964;28;20121;-89
2022/11/05 05:02:27;;;;;;;13.23;4.70;;;7.90;99.90;;;;;;4977453;28;20126;-89
2022/11/05 05:04:52;;;;;;;14.40;4.55;;;8.00;99.90;;;;;;4977536;28;20054;-91
2022/11/05 05:07:18;;;;;;;14.40;5.03;;;8.00;99.90;;;;;;4988086;28;20031;-93
2022/11/05 05:09:44;;;;;;;6.63;3.80;;;8.00;99.90;;;;;;4997202;28;20061;-92
2022/11/05 05:12:09;;;;;;;11.82;3.63;;;8.00;99.90;;;;;;4995060;28;20037;-91
2022/11/05 05:14:35;;;;;;;8.02;3.58;;;8.00;99.90;;;;;;4982475;28;20510;-90
2022/11/05 05:17:01;;;;;;;7.07;3.20;;;8.00;99.90;;;;;;4977306;28;20506;-91
2022/11/05 05:19:26;;;;;;;10.27;3.20;;;8.00;99.90;;;;;;4977182;28;20131;-91
2022/11/05 05:21:52;;;;;;;7.40;3.35;;;8.00;99.90;;;;;;4977107;28;20034;-90
2022/11/05 05:24:19;;;;;;;7.95;3.42;;;8.10;99.90;;;;;;4976787;28;20133;-90
2022/11/05 05:26:49;;;;;;;7.28;3.28;;;8.10;99.90;;;;;;4977038;28;20089;-91
2022/11/05 05:29:16;;;;;;;9.63;4.13;;;8.10;99.90;;;;;;4976697;28;20093;-90
2022/11/05 05:31:42;;;;;;;5.32;3.10;;;8.10;99.90;;;;;;4976870;28;20273;-90
2022/11/05 05:34:12;;;;;;;4.65;3.00;;;8.10;99.90;;;;;;4976819;28;20029;-91
2022/11/05 05:36:38;;;;;;;5.30;2.80;;;8.10;99.90;;;;;;4976965;28;20034;-90
2022/11/05 05:39:05;;;;;;;11.40;3.53;;;8.10;99.90;;;;;;4979986;28;20026;-90
2022/11/05 05:41:31;;;;;;;6.88;2.97;;;8.10;99.90;;;;;;4981007;28;20034;-91
2022/11/05 05:43:57;;;;;;;7.07;3.08;;;8.10;99.90;;;;;;4980635;28;20031;-91
2022/11/05 05:46:23;;;;;;;8.32;2.85;;;8.10;99.90;;;;;;4980774;28;20038;-91
2022/11/05 05:48:50;;;;;;;6.82;2.65;;;8.10;99.90;;;;;;4982515;28;20031;-90
2022/11/05 05:51:17;;;;;;;5.50;2.72;;;8.20;99.90;;;;;;4984097;28;20030;-91
2022/11/05 05:53:43;;;;;;;5.00;2.33;;;8.20;99.90;;;;;;4980210;28;20033;-91
2022/11/05 05:56:09;;;;;;;5.68;2.28;;;8.20;99.90;;;;;;4980459;28;20026;-91
2022/11/05 05:58:37;;;;;;;5.25;2.15;;;8.20;99.90;;;;;;4980560;28;20117;-92
2022/11/05 06:01:08;;;;;;;4.85;2.20;;;8.20;99.90;;;;;;4980300;28;20018;-90
2022/11/05 06:03:34;;;;;;;3.33;2.05;;;8.20;99.90;;;;;;4980300;28;20483;-90
2022/11/05 06:06:01;;;;;;;9.18;2.50;;;8.20;99.90;;;;;;4980420;28;20141;-91
2022/11/05 06:08:28;;;;;;;4.30;2.40;;;8.20;99.90;;;;;;4988291;28;20057;-91
2022/11/05 06:10:54;;;;;;;4.93;1.88;;;8.20;99.90;;;;;;4987835;28;20058;-91
2022/11/05 06:13:19;;;;;;;6.57;2.20;;;8.20;99.90;;;;;;4980535;28;20026;-92
2022/11/05 06:15:45;;;;;;;8.95;2.13;;;8.20;99.90;;;;;;4979908;28;20614;-92
2022/11/05 06:18:10;;;;;;;4.15;1.83;;;8.20;99.90;;;;;;4980631;28;20033;-90
2022/11/05 06:20:36;;;;;;;4.70;1.90;;;8.30;99.90;;;;;;4980261;28;20026;-91
2022/11/05 06:23:02;;;;;;;3.17;2.20;;;8.30;99.90;;;;;;4979784;28;20185;-90
2022/11/05 06:25:28;;;;;;;7.32;2.30;;;8.20;99.90;;;;;;4980006;28;20029;-91
2022/11/05 06:27:53;;;;;;;9.35;3.17;;;8.30;99.90;;;;;;4980318;28;20032;-91
2022/11/05 06:30:22;;;;;;;7.70;2.50;;;8.20;99.90;;;;;;4979909;28;20121;-91
2022/11/05 06:32:48;;;;;;;4.97;2.58;;;8.20;99.90;;;;;;4980018;28;20122;-89
2022/11/05 06:35:13;;;;;;;7.03;2.47;;;8.20;99.90;;;;;;4979874;28;20064;-91
2022/11/05 06:37:39;;;;;;;10.15;2.50;;;8.30;99.90;;;;;;4979928;28;20037;-90
2022/11/05 06:40:06;;;;;;;5.32;2.10;;;8.30;99.90;;;;;;4979726;28;20026;-91
2022/11/05 06:42:31;;;;;;;7.20;2.60;;;8.20;99.90;;;;;;4979417;28;20396;-90
2022/11/05 06:44:57;;;;;;;3.38;2.22;;;8.20;99.90;;;;;;4979723;28;20038;-92
2022/11/05 06:47:22;;;;;;;10.85;2.35;;;8.30;99.90;;;;;;4979925;28;20037;-90
2022/11/05 06:49:49;;;;;;;7.00;2.60;;;8.30;99.90;;;;;;4978556;28;20045;-90
2022/11/05 06:52:15;;;;;;;7.03;2.42;;;8.30;99.90;;;;;;4979753;28;20053;-90
2022/11/05 06:54:42;;;;;;;6.85;2.53;;;8.30;99.90;;;;;;4979603;28;20030;-90
2022/11/05 06:57:09;;;;;;;6.75;2.30;;;8.30;99.90;;;;;;4979906;28;20475;-91
2022/11/05 06:59:37;;;;;;;10.60;2.67;;;8.30;99.90;;;;;;4979823;28;20030;-91
2022/11/05 07:02:04;;;;;;;10.90;2.45;;;8.30;99.90;;;;;;4980139;28;20026;-90
2022/11/05 07:04:29;;;;;;;3.53;2.30;;;8.30;99.90;;;;;;4979399;28;20050;-91
2022/11/05 07:06:59;;;;;;;8.95;2.70;;;8.30;99.90;;;;;;4979698;28;20081;-90
2022/11/05 07:09:27;;;;;;;8.43;2.63;;;8.30;99.90;;;;;;4979880;28;20062;-91
2022/11/05 07:11:54;;;;;;;7.60;2.80;;;8.40;99.90;;;;;;4979892;28;20031;-90
2022/11/05 07:14:19;;;;;;;3.03;2.17;;;8.30;99.90;;;;;;4980749;28;20054;-90
2022/11/05 07:16:45;;;;;;;5.20;2.30;;;8.40;99.90;;;;;;4993681;28;20384;-89
2022/11/05 07:19:11;;;;;;;5.25;2.75;;;8.30;99.90;;;;;;4982716;28;20033;-90
2022/11/05 07:21:36;;;;;;;12.48;2.95;;;8.30;99.90;;;;;;4990631;28;20046;-91
2022/11/05 07:24:02;;;;;;;4.45;2.22;;;8.30;99.90;;;;;;4989597;28;20137;-91
2022/11/05 07:26:28;;;;;;;4.22;2.30;;;8.40;99.90;;;;;;4990821;28;20093;-89
2022/11/05 07:28:54;;;;;;;4.57;2.08;;;8.40;99.90;;;;;;4989351;28;20030;-89
2022/11/05 07:31:19;;;;;;;6.05;2.20;;;8.40;99.90;;;;;;4990714;28;20061;-91
2022/11/05 07:33:45;;;;;;;5.43;2.30;;;8.40;99.90;;;;;;4989734;28;20050;-89
2022/11/05 07:36:10;;;;;;;7.72;2.55;;;8.40;99.90;;;;;;4988760;28;20037;-89
2022/11/05 07:38:36;;;;;;;13.60;3.50;;;8.40;99.90;;;;;;4986497;28;20030;-89
2022/11/05 07:41:02;;;;;;;8.93;3.13;;;8.40;99.90;;;;;;4982748;28;20062;-91
2022/11/05 07:43:28;;;;;;;7.57;3.53;;;8.40;99.90;;;;;;4979051;28;20056;-90
2022/11/05 07:45:53;;;;;;;8.70;3.05;;;8.40;99.90;;;;;;4978809;28;20073;-90
2022/11/05 07:48:19;;;;;;;10.13;3.35;;;8.40;99.90;;;;;;4978754;28;20576;-90
2022/11/05 07:50:44;;;;;;;11.40;3.20;;;8.50;99.90;;;;;;4978452;28;20018;-90
2022/11/05 07:53:12;;;;;;;12.45;3.70;;;8.50;99.90;;;;;;4978208;28;20042;-90
2022/11/05 07:55:42;;;;;;;9.07;3.50;;;8.50;99.90;;;;;;4978158;28;20374;-91
2022/11/05 07:58:09;;;;;;;8.13;2.97;;;8.50;99.90;;;;;;4978598;28;20027;-89
2022/11/05 08:00:36;;;;;;;6.97;3.20;;;8.50;99.90;;;;;;4978181;28;20030;-90
2022/11/05 08:03:13;;;;;;;10.10;3.83;;;8.50;99.90;;;;;;4978337;28;20082;-89
2022/11/05 08:05:42;;;;;;;8.90;3.20;;;8.50;99.90;;;;;;4978370;28;20059;-90
2022/11/05 08:08:09;;;;;;;12.73;3.80;;;8.50;99.90;;;;;;4978486;28;20026;-90
2022/11/05 08:10:36;;;;;;;12.70;3.70;;;8.50;99.90;;;;;;4978410;28;20034;-90
2022/11/05 08:13:03;;;;;;;7.50;3.75;;;8.50;99.90;;;;;;4978191;28;20034;-90
2022/11/05 08:15:30;;;;;;;10.80;3.75;;;8.50;99.90;;;;;;4977988;28;20036;-91
2022/11/05 08:18:05;;;;;;;10.15;3.22;;;8.50;99.90;;;;;;4977951;28;20034;-90
2022/11/05 08:20:31;;;;;;;13.75;3.38;;;8.50;99.90;;;;;;4978063;28;20090;-90
2022/11/05 08:22:57;;;;;;;12.65;3.40;;;8.50;99.90;;;;;;4995520;28;20038;-90
2022/11/05 08:25:23;;;;;;;8.45;3.10;;;8.50;99.90;;;;;;4978088;28;20045;-91
2022/11/05 08:27:56;;;;;;;9.93;3.58;;;8.50;99.90;;;;;;4978100;28;20026;-90
2022/11/05 08:30:22;;;;;;;10.65;3.65;;;8.60;99.90;;;;;;4978140;28;20055;-90
2022/11/05 08:32:48;;;;;;;7.50;3.20;;;8.60;99.90;;;;;;4980262;28;20376;-91
2022/11/05 08:35:14;;;;;;;7.60;3.38;;;8.60;99.90;;;;;;4988293;28;20029;-91
2022/11/05 08:37:40;;;;;;;7.05;3.42;;;8.70;99.90;;;;;;4987694;28;20030;-90
2022/11/05 08:40:06;;;;;;;8.50;3.58;;;8.70;99.90;;;;;;4986482;28;20029;-91
2022/11/05 08:42:32;;;;;;;6.95;3.33;;;8.70;99.90;;;;;;5000065;28;20041;-90
2022/11/05 08:44:57;;;;;;;8.20;3.28;;;8.80;99.90;;;;;;4981833;28;20030;-90
2022/11/05 08:47:24;;;;;;;9.75;3.13;;;8.80;99.90;;;;;;4984830;28;20041;-91
2022/11/05 08:49:50;;;;;;;5.18;3.22;;;8.80;99.90;;;;;;4980669;28;20033;-91
2022/11/05 08:52:16;;;;;;;7.80;3.38;;;8.80;99.90;;;;;;4978005;28;20014;-92
2022/11/05 08:54:42;;;;;;;9.55;3.33;;;8.90;99.90;;;;;;4978173;28;20036;-90
2022/11/05 08:57:09;;;;;;;6.97;3.65;;;8.90;99.90;;;;;;4996030;28;20031;-90
2022/11/05 08:59:34;;;;;;;8.93;3.70;;;8.90;99.90;;;;;;4977385;28;20033;-90
2022/11/05 09:02:00;;;;;;;6.00;3.67;;;9.00;99.90;;;;;;4977398;28;20125;-90
2022/11/05 09:04:25;;;;;;;6.85;3.40;;;9.00;99.90;;;;;;4977114;28;20084;-90
2022/11/05 09:06:51;;;;;;;10.05;3.67;;;9.10;99.90;;;;;;4977157;28;20038;-91
2022/11/05 09:09:17;;;;;;;4.93;3.35;;;9.10;99.90;;;;;;4977312;28;20022;-92
2022/11/05 09:11:43;;;;;;;7.32;3.50;;;9.10;99.90;;;;;;4977389;28;20030;-91
2022/11/05 09:14:09;;;;;;;6.50;3.60;;;9.10;99.90;;;;;;4977157;28;20583;-92
2022/11/05 09:16:35;;;;;;;6.57;3.85;;;9.10;99.90;;;;;;4963132;28;20030;-91
2022/11/05 09:19:03;;;;;;;9.55;4.38;;;9.10;99.90;;;;;;4979511;28;20034;-93
2022/11/05 09:21:29;;;;;;;10.93;4.30;;;9.20;99.90;;;;;;4983397;28;20488;-91
2022/11/05 09:23:55;;;;;;;7.30;4.15;;;9.10;99.90;;;;;;4979303;28;20189;-91
2022/11/05 09:26:21;;;;;;;7.13;4.25;;;9.20;99.90;;;;;;4983704;28;20476;-91
2022/11/05 09:28:48;;;;;;;8.52;4.40;;;9.20;99.90;;;;;;4983546;28;20061;-92
2022/11/05 09:31:14;;;;;;;6.75;3.60;;;9.20;99.90;;;;;;4980596;28;20022;-92
2022/11/05 09:33:40;;;;;;;7.65;4.00;;;9.20;99.90;;;;;;4978770;28;20026;-92
2022/11/05 09:36:07;;;;;;;6.30;3.72;;;9.20;99.90;;;;;;4977233;28;20124;-92
2022/11/05 09:38:34;;;;;;;7.50;4.28;;;9.20;99.90;;;;;;4977031;28;20038;-92
2022/11/05 09:41:01;;;;;;;9.10;4.05;;;9.20;99.90;;;;;;4976895;28;20122;-92
2022/11/05 09:43:42;;;;;;;7.97;4.18;;;9.20;99.90;;;;;;4976949;28;20045;-91
2022/11/05 09:46:13;;;;;;;;;;;9.20;99.90;;;;;;4977692;28;20027;-92
2022/11/05 09:48:41;;;;;;;13.07;4.20;;;9.20;99.90;;;;;;4976676;28;19997;-93
2022/11/05 09:51:10;;;;;;;9.10;4.13;;;9.20;99.90;;;;;;4976879;28;20034;-93
2022/11/05 09:53:40;;;;;;;9.88;3.97;;;9.20;99.90;;;;;;4977151;28;20117;-92
2022/11/05 09:56:32;;;;;;;7.68;4.32;;;9.20;99.90;;;;;;4976675;28;20019;-91
2022/11/05 09:59:02;;;;;;;6.65;3.70;;;9.20;99.90;;;;;;4976735;28;20035;-92
2022/11/05 10:01:34;;;;;;;6.82;3.55;;;9.30;99.90;;;;;;4976680;28;20053;-91
2022/11/05 10:04:05;;;;;;;7.32;3.88;;;9.30;99.90;;;;;;4976676;28;20038;-91
2022/11/05 10:06:31;;;;;;;6.85;3.80;;;9.30;99.90;;;;;;4976561;28;20488;-91
2022/11/05 10:09:05;;;;;;;5.82;3.83;;;9.30;99.90;;;;;;4976737;28;20033;-91
2022/11/05 10:11:37;;;;;;;5.95;3.78;;;9.30;99.90;;;;;;4976895;28;20023;-90
2022/11/05 10:14:18;;;;;;;5.38;3.58;;;9.30;99.90;;;;;;4976402;28;20089;-92
2022/11/05 10:16:51;;;;;;;7.93;3.60;;;9.40;99.90;;;;;;4977130;28;20029;-90
2022/11/05 10:19:25;;;;;;;6.07;3.70;;;9.30;99.90;;;;;;4976627;28;20030;-91
2022/11/05 10:22:08;;;;;;;6.38;3.42;;;9.40;99.90;;;;;;4976497;28;20019;-91
2022/11/05 10:24:34;;;;;;;5.72;3.53;;;9.40;99.90;;;;;;4978384;28;20042;-91
2022/11/05 10:27:00;;;;;;;7.47;3.30;;;9.40;99.90;;;;;;4980262;28;20510;-90
2022/11/05 10:29:29;;;;;;;8.50;3.78;;;9.40;99.90;;;;;;4979843;28;20034;-92
2022/11/05 10:31:57;;;;;;;6.10;3.13;;;9.50;99.90;;;;;;4963701;28;20034;-92
2022/11/05 10:34:30;;;;;;;4.57;3.00;;;9.50;99.90;;;;;;4979756;28;20030;-91
2022/11/05 10:36:56;;;;;;;6.20;3.50;;;9.50;99.90;;;;;;4980053;28;20033;-89
2022/11/05 10:39:26;;;;;;;6.85;3.28;;;9.60;99.90;;;;;;4979926;28;20038;-92
2022/11/05 10:42:09;;;;;;;5.40;3.00;;;9.60;99.90;;;;;;4979960;28;20180;-90
2022/11/05 10:45:05;;;;;;;5.43;3.22;;;9.70;99.90;;;;;;4979315;28;20038;-91
2022/11/05 10:47:37;;;;;;;4.05;3.08;;;9.70;99.90;;;;;;4980022;28;20365;-90
2022/11/05 10:50:25;;;;;;;5.22;2.75;;;9.80;99.90;;;;;;4980872;28;20103;-91
2022/11/05 10:52:54;;;;;;;4.18;2.88;;;9.80;99.90;;;;;;4987956;28;20026;-92
2022/11/05 10:55:23;;;;;;;5.43;3.15;;;9.90;99.90;;;;;;4988928;28;20041;-91
2022/11/05 10:57:49;;;;;;;5.65;2.75;;;10.00;99.90;;;;;;4980094;28;20030;-91
2022/11/05 11:00:15;;;;;;;7.85;3.03;;;10.00;99.90;;;;;;4984344;28;20022;-90
2022/11/05 11:02:54;;;;;;;5.63;2.35;;;10.10;99.90;;;;;;4979361;28;20376;-90
2022/11/05 11:05:36;;;;;;;2.45;1.80;;;10.10;99.90;;;;;;4979885;28;20042;-91
2022/11/05 11:08:05;;;;;;;5.15;3.10;;;10.20;99.90;;;;;;4979947;28;20121;-91
2022/11/05 11:10:38;;;;;;;2.28;1.90;;;10.20;99.90;;;;;;4980061;28;20030;-90
2022/11/05 11:13:05;;;;;;;4.25;2.38;;;10.30;99.90;;;;;;4986650;28;20034;-90
2022/11/05 11:15:35;;;;;;;5.97;3.17;;;10.30;99.90;;;;;;4997715;28;20011;-90
2022/11/05 11:18:35;;;;;;;8.75;2.60;;;10.40;99.90;;;;;;4985022;28;20034;-93
2022/11/05 11:21:12;;;;;;;6.90;2.90;;;10.40;99.90;;;;;;4979917;28;20046;-90
2022/11/05 11:23:39;;;;;;;7.43;2.65;;;10.40;99.90;;;;;;4987415;28;20030;-90
2022/11/05 11:26:06;;;;;;;6.95;2.65;;;10.40;99.90;;;;;;4983798;28;20033;-92
2022/11/05 11:28:38;;;;;;;8.48;3.15;;;10.40;99.90;;;;;;4979422;28;20043;-90
2022/11/05 11:31:12;;;;;;;7.32;2.85;;;10.30;99.90;;;;;;4979003;28;20069;-90
2022/11/05 11:33:40;;;;;;;6.43;3.20;;;10.30;99.90;;;;;;4979038;28;20058;-91
2022/11/05 11:36:08;;;;;;;8.25;3.20;;;10.30;99.90;;;;;;4978300;28;20030;-90
2022/11/05 11:38:37;;;;;;;12.63;3.38;;;10.30;99.90;;;;;;4978831;28;20562;-90
2022/11/05 11:41:22;;;;;;;10.73;3.70;;;10.30;99.90;;;;;;4978682;28;20022;-89
2022/11/05 11:43:48;;;;;;;13.50;5.18;;;10.30;99.90;;;;;;4978784;28;20196;-92
2022/11/05 11:46:19;;;;;;;14.82;5.75;;;10.30;99.90;;;;;;4978615;28;20049;-90
2022/11/05 11:48:47;;;;;;;13.57;5.22;;;10.30;99.90;;;;;;4978561;28;20026;-89
2022/11/05 11:51:26;;;;;;;12.75;3.78;;;10.30;99.90;;;;;;4978502;28;20034;-90
2022/11/05 11:53:56;;;;;;;11.40;4.97;;;10.30;99.90;;;;;;4979061;28;20030;-91
2022/11/05 11:56:46;;;;;;;15.75;5.45;;;10.30;99.90;;;;;;4978519;28;20081;-92
2022/11/05 11:59:26;;;;;;;12.38;4.90;;;10.20;99.90;;;;;;4982316;28;20049;-91
2022/11/05 12:02:20;;;;;;;10.55;4.68;;;10.20;99.90;;;;;;4982557;28;20057;-91
2022/11/05 12:04:56;;;;;;;16.95;5.55;;;10.20;99.90;;;;;;4978351;28;20042;-91
2022/11/05 12:07:47;;;;;;;13.35;4.80;;;10.20;99.90;;;;;;4978380;28;20047;-90
2022/11/05 12:10:53;;;;;;;13.98;4.50;;;10.20;99.90;;;;;;4978103;28;20070;-91
2022/11/05 12:13:24;;;;;;;10.38;3.85;;;10.20;99.90;;;;;;4978701;28;20069;-90
2022/11/05 12:16:06;;;;;;;12.07;3.78;;;10.20;99.90;;;;;;4978592;28;20018;-91
2022/11/05 12:18:46;;;;;;;11.32;4.05;;;10.20;99.90;;;;;;4978652;28;20026;-92
2022/11/05 12:21:37;;;;;;;8.23;3.53;;;10.20;99.90;;;;;;4983999;28;20065;-91
2022/11/05 12:24:27;;;;;;;11.77;4.82;;;10.20;99.90;;;;;;4986584;28;20112;-90
2022/11/05 12:27:29;;;;;;;10.63;2.85;;;10.20;99.90;;;;;;4978023;28;20046;-92
2022/11/05 12:30:04;;;;;;;7.97;3.55;;;10.30;99.90;;;;;;4978257;28;20034;-92
2022/11/05 12:32:52;;;;;;;8.40;3.35;;;10.20;99.90;;;;;;4978366;28;20038;-93
2022/11/05 12:36:06;;;;;;;8.27;3.00;;;10.30;99.90;;;;;;4978546;28;20031;-91
2022/11/05 12:38:56;;;;;;;7.60;2.55;;;10.20;99.90;;;;;;4984315;28;20034;-93
2022/11/05 12:41:59;;;;;;;8.32;2.83;;;10.20;99.90;;;;;;4981587;28;20041;-91
2022/11/05 12:45:11;;;;;;;8.50;3.28;;;10.20;99.90;;;;;;4962026;28;20034;-93
2022/11/05 12:47:45;;;;;;;6.20;2.75;;;10.30;99.90;;;;;;4977994;28;20034;-92
2022/11/05 12:50:23;;;;;;;7.85;2.90;;;10.30;99.90;;;;;;4995602;28;20034;-90
2022/11/05 12:52:49;;;;;;;7.80;2.42;;;10.30;99.90;;;;;;4977810;28;20053;-94
2022/11/05 12:55:20;;;;;;;6.93;2.47;;;10.30;99.90;;;;;;4977791;28;20035;-92
2022/11/05 12:57:48;;;;;;;;;;;10.40;99.90;;;;;;4977955;28;20022;-91
2022/11/05 13:00:19;;;;;;;4.90;2.53;;;10.40;99.90;;;;;;4977733;28;20335;-92
2022/11/05 13:03:00;;;;;;;3.15;1.83;;;10.40;99.90;;;;;;4977509;28;20030;-93
2022/11/05 13:05:42;;;;;;;5.10;1.98;;;10.40;99.90;;;;;;4977376;28;20049;-90
2022/11/05 13:08:12;;;;;;;4.97;2.17;;;10.40;99.90;;;;;;4977496;28;20022;-92
2022/11/05 13:11:10;;;;;;;8.75;2.33;;;10.40;99.90;;;;;;4977175;28;20129;-92
2022/11/05 13:13:41;;;;;;;5.80;2.05;;;10.50;99.90;;;;;;4977438;28;20113;-93
2022/11/05 13:16:19;;;;;;;7.90;2.88;;;10.50;99.90;;;;;;4977252;28;20027;-93
2022/11/05 13:18:52;;;;;;;6.18;1.70;;;10.50;99.90;;;;;;4977569;28;20018;-92
2022/11/05 13:21:22;;;;;;;4.88;1.83;;;10.50;99.90;;;;;;4977853;28;20045;-93
2022/11/05 13:23:55;;;;;;;8.73;2.28;;;10.50;99.90;;;;;;4977333;28;20129;-93
2022/11/05 13:26:47;;;;;;;4.93;2.45;;;10.50;99.90;;;;;;4980308;28;20031;-93
2022/11/05 13:29:26;;;;;;;6.75;2.25;;;10.50;99.90;;;;;;4978824;28;20566;-93
2022/11/05 13:32:12;;;;;;;10.77;2.60;;;10.60;99.90;;;;;;4977172;28;20026;-92
2022/11/05 13:34:38;;;;;;;2.75;1.80;;;10.60;99.90;;;;;;4977047;28;20509;-93
2022/11/05 13:39:56;;;;;;;7.47;2.15;;;10.60;99.90;;;;;;4994555;28;20041;-92
2022/11/05 13:42:37;;;;;;;7.40;2.08;;;10.60;99.90;;;;;;4977234;28;20029;-93
2022/11/05 13:45:24;;;;;;;8.55;2.20;;;10.60;99.90;;;;;;4977007;28;20042;-92
2022/11/05 13:48:24;;;;;;;5.55;2.38;;;10.70;99.90;;;;;;4977160;28;20026;-91
2022/11/05 13:51:04;;;;;;;4.70;2.00;;;10.70;99.90;;;;;;4977046;28;20073;-93
2022/11/05 13:53:41;;;;;;;4.20;1.60;;;10.70;99.90;;;;;;4976952;28;20447;-92
2022/11/05 13:56:38;;;;;;;6.53;2.20;;;10.70;99.90;;;;;;4976932;28;20022;-93